sensor_id;sensor_type;location;lat;lon;timestamp;temperature;humidity
66582;SHT31;53438;48.898;2.308;2023-11-18T00:02:17;11.57;79.93
66582;SHT31;53438;48.898;2.308;2023-11-18T00:04:43;11.51;80.11
66582;SHT31;53438;48.898;2.308;2023-11-18T00:07:08;11.53;79.79
66582;SHT31;53438;48.898;2.308;2023-11-18T00:09:34;11.48;80.11
66582;SHT31;53438;48.898;2.308;2023-11-18T00:11:59;11.53;80.13
66582;SHT31;53438;48.898;2.308;2023-11-18T00:14:25;11.54;80.15
66582;SHT31;53438;48.898;2.308;2023-11-18T00:16:50;11.61;79.83
66582;SHT31;53438;48.898;2.308;2023-11-18T00:19:16;11.57;80.07
66582;SHT31;53438;48.898;2.308;2023-11-18T00:21:42;11.50;79.95
66582;SHT31;53438;48.898;2.308;2023-11-18T00:24:08;11.58;80.13
66582;SHT31;53438;48.898;2.308;2023-11-18T00:26:33;11.50;80.31
66582;SHT31;53438;48.898;2.308;2023-11-18T00:28:59;11.37;80.63
66582;SHT31;53438;48.898;2.308;2023-11-18T00:31:26;11.43;80.57
66582;SHT31;53438;48.898;2.308;2023-11-18T00:33:51;11.44;80.47
66582;SHT31;53438;48.898;2.308;2023-11-18T00:36:17;11.45;80.60
66582;SHT31;53438;48.898;2.308;2023-11-18T00:38:42;11.54;80.42
66582;SHT31;53438;48.898;2.308;2023-11-18T00:41:08;11.50;80.52
66582;SHT31;53438;48.898;2.308;2023-11-18T00:43:33;11.41;80.58
66582;SHT31;53438;48.898;2.308;2023-11-18T00:45:58;11.50;80.47
66582;SHT31;53438;48.898;2.308;2023-11-18T00:48:24;11.53;80.63
66582;SHT31;53438;48.898;2.308;2023-11-18T00:50:50;11.44;81.04
66582;SHT31;53438;48.898;2.308;2023-11-18T00:53:17;11.51;81.07
66582;SHT31;53438;48.898;2.308;2023-11-18T00:55:42;11.47;81.48
66582;SHT31;53438;48.898;2.308;2023-11-18T00:58:07;11.50;81.19
66582;SHT31;53438;48.898;2.308;2023-11-18T04:02:11;11.24;81.27
66582;SHT31;53438;48.898;2.308;2023-11-18T04:04:37;11.24;81.21
66582;SHT31;53438;48.898;2.308;2023-11-18T04:07:03;11.31;80.93
66582;SHT31;53438;48.898;2.308;2023-11-18T04:09:29;11.36;80.77
66582;SHT31;53438;48.898;2.308;2023-11-18T04:11:55;11.38;80.63
66582;SHT31;53438;48.898;2.308;2023-11-18T04:14:20;11.34;80.76
66582;SHT31;53438;48.898;2.308;2023-11-18T04:16:46;11.28;81.03
66582;SHT31;53438;48.898;2.308;2023-11-18T04:19:12;11.36;80.94
66582;SHT31;53438;48.898;2.308;2023-11-18T04:21:37;11.37;80.76
66582;SHT31;53438;48.898;2.308;2023-11-18T04:24:03;11.31;81.04
66582;SHT31;53438;48.898;2.308;2023-11-18T04:26:30;11.33;80.90
66582;SHT31;53438;48.898;2.308;2023-11-18T04:28:56;11.37;80.93
66582;SHT31;53438;48.898;2.308;2023-11-18T04:31:21;11.37;80.89
66582;SHT31;53438;48.898;2.308;2023-11-18T04:33:47;11.37;80.82
66582;SHT31;53438;48.898;2.308;2023-11-18T04:36:12;11.15;81.59
66582;SHT31;53438;48.898;2.308;2023-11-18T04:38:38;11.23;81.59
66582;SHT31;53438;48.898;2.308;2023-11-18T04:41:04;11.20;81.47
66582;SHT31;53438;48.898;2.308;2023-11-18T04:43:29;11.26;81.36
66582;SHT31;53438;48.898;2.308;2023-11-18T04:45:55;11.13;81.81
66582;SHT31;53438;48.898;2.308;2023-11-18T04:48:21;11.31;81.23
66582;SHT31;53438;48.898;2.308;2023-11-18T04:50:46;11.30;81.44
66582;SHT31;53438;48.898;2.308;2023-11-18T04:53:11;11.22;81.93
66582;SHT31;53438;48.898;2.308;2023-11-18T04:55:38;11.24;81.59
66582;SHT31;53438;48.898;2.308;2023-11-18T04:58:03;11.22;81.79
66582;SHT31;53438;48.898;2.308;2023-11-18T05:00:31;11.33;81.50
66582;SHT31;53438;48.898;2.308;2023-11-18T05:02:57;11.31;81.56
66582;SHT31;53438;48.898;2.308;2023-11-18T05:05:23;11.19;82.05
66582;SHT31;53438;48.898;2.308;2023-11-18T05:07:48;11.13;83.10
66582;SHT31;53438;48.898;2.308;2023-11-18T05:10:13;11.15;82.74
66582;SHT31;53438;48.898;2.308;2023-11-18T05:12:39;11.09;83.37
66582;SHT31;53438;48.898;2.308;2023-11-18T05:15:06;11.02;83.38
66582;SHT31;53438;48.898;2.308;2023-11-18T05:17:34;11.06;83.58
66582;SHT31;53438;48.898;2.308;2023-11-18T05:20:04;11.07;83.73
66582;SHT31;53438;48.898;2.308;2023-11-18T05:22:30;11.00;83.96
66582;SHT31;53438;48.898;2.308;2023-11-18T05:24:56;11.10;83.77
66582;SHT31;53438;48.898;2.308;2023-11-18T05:27:22;11.15;83.70
66582;SHT31;53438;48.898;2.308;2023-11-18T05:29:47;11.15;83.66
66582;SHT31;53438;48.898;2.308;2023-11-18T05:32:20;11.24;83.49
66582;SHT31;53438;48.898;2.308;2023-11-18T05:34:45;11.22;83.57
66582;SHT31;53438;48.898;2.308;2023-11-18T05:37:11;11.16;83.78
66582;SHT31;53438;48.898;2.308;2023-11-18T05:39:36;11.22;83.47
66582;SHT31;53438;48.898;2.308;2023-11-18T05:42:08;11.12;83.95
66582;SHT31;53438;48.898;2.308;2023-11-18T05:44:36;11.15;84.11
66582;SHT31;53438;48.898;2.308;2023-11-18T05:47:03;11.15;84.06
66582;SHT31;53438;48.898;2.308;2023-11-18T05:49:29;11.09;84.37
66582;SHT31;53438;48.898;2.308;2023-11-18T05:51:54;11.13;84.28
66582;SHT31;53438;48.898;2.308;2023-11-18T05:54:19;11.10;84.53
66582;SHT31;53438;48.898;2.308;2023-11-18T05:56:45;11.26;83.67
66582;SHT31;53438;48.898;2.308;2023-11-18T05:59:10;11.19;83.90
66582;SHT31;53438;48.898;2.308;2023-11-18T06:01:36;11.24;83.72
66582;SHT31;53438;48.898;2.308;2023-11-18T06:04:03;11.07;84.24
66582;SHT31;53438;48.898;2.308;2023-11-18T06:06:28;10.96;84.85
66582;SHT31;53438;48.898;2.308;2023-11-18T06:08:53;11.00;84.86
66582;SHT31;53438;48.898;2.308;2023-11-18T06:11:19;10.91;85.14
66582;SHT31;53438;48.898;2.308;2023-11-18T06:13:46;11.13;84.08
66582;SHT31;53438;48.898;2.308;2023-11-18T06:16:13;11.12;84.42
66582;SHT31;53438;48.898;2.308;2023-11-18T06:18:40;11.03;84.67
66582;SHT31;53438;48.898;2.308;2023-11-18T06:21:06;10.99;84.83
66582;SHT31;53438;48.898;2.308;2023-11-18T06:23:31;10.95;85.04
66582;SHT31;53438;48.898;2.308;2023-11-18T06:25:58;10.82;84.97
66582;SHT31;53438;48.898;2.308;2023-11-18T06:28:25;10.93;84.69
66582;SHT31;53438;48.898;2.308;2023-11-18T06:30:51;11.02;84.52
66582;SHT31;53438;48.898;2.308;2023-11-18T06:33:16;10.89;85.00
66582;SHT31;53438;48.898;2.308;2023-11-18T06:35:42;10.77;85.15
66582;SHT31;53438;48.898;2.308;2023-11-18T06:38:10;10.92;85.52
66582;SHT31;53438;48.898;2.308;2023-11-18T06:40:38;10.72;85.54
66582;SHT31;53438;48.898;2.308;2023-11-18T06:43:03;10.82;85.26
66582;SHT31;53438;48.898;2.308;2023-11-18T06:45:36;10.79;85.44
66582;SHT31;53438;48.898;2.308;2023-11-18T06:48:03;10.77;85.33
66582;SHT31;53438;48.898;2.308;2023-11-18T06:50:30;10.96;84.95
66582;SHT31;53438;48.898;2.308;2023-11-18T06:52:57;10.95;85.23
66582;SHT31;53438;48.898;2.308;2023-11-18T06:55:22;11.06;84.92
66582;SHT31;53438;48.898;2.308;2023-11-18T06:57:48;11.07;84.55
66582;SHT31;53438;48.898;2.308;2023-11-18T07:00:13;10.97;84.74
66582;SHT31;53438;48.898;2.308;2023-11-18T07:02:40;10.77;85.73
66582;SHT31;53438;48.898;2.308;2023-11-18T07:05:06;10.61;86.43
66582;SHT31;53438;48.898;2.308;2023-11-18T07:07:31;10.71;86.41
66582;SHT31;53438;48.898;2.308;2023-11-18T07:09:57;10.66;86.94
66582;SHT31;53438;48.898;2.308;2023-11-18T07:12:22;10.52;87.21
66582;SHT31;53438;48.898;2.308;2023-11-18T07:14:48;10.45;87.62
66582;SHT31;53438;48.898;2.308;2023-11-18T07:17:14;10.61;86.98
66582;SHT31;53438;48.898;2.308;2023-11-18T07:19:39;10.54;87.31
66582;SHT31;53438;48.898;2.308;2023-11-18T07:22:05;10.73;86.79
66582;SHT31;53438;48.898;2.308;2023-11-18T07:24:32;10.75;86.59
66582;SHT31;53438;48.898;2.308;2023-11-18T07:26:57;10.69;86.72
66582;SHT31;53438;48.898;2.308;2023-11-18T07:29:25;10.68;87.33
66582;SHT31;53438;48.898;2.308;2023-11-18T07:31:51;10.66;87.37
66582;SHT31;53438;48.898;2.308;2023-11-18T07:34:16;10.68;87.43
66582;SHT31;53438;48.898;2.308;2023-11-18T07:36:42;10.68;87.25
66582;SHT31;53438;48.898;2.308;2023-11-18T07:39:11;10.76;87.15
66582;SHT31;53438;48.898;2.308;2023-11-18T07:41:41;10.69;87.47
66582;SHT31;53438;48.898;2.308;2023-11-18T07:44:07;10.75;87.38
66582;SHT31;53438;48.898;2.308;2023-11-18T07:46:36;10.72;87.24
66582;SHT31;53438;48.898;2.308;2023-11-18T07:49:03;10.79;87.22
66582;SHT31;53438;48.898;2.308;2023-11-18T07:51:29;10.80;87.20
66582;SHT31;53438;48.898;2.308;2023-11-18T07:53:54;10.71;87.70
66582;SHT31;53438;48.898;2.308;2023-11-18T07:56:20;10.64;88.13
66582;SHT31;53438;48.898;2.308;2023-11-18T07:58:47;10.62;88.13
66582;SHT31;53438;48.898;2.308;2023-11-18T08:01:13;10.77;87.90
66582;SHT31;53438;48.898;2.308;2023-11-18T08:03:41;10.62;88.36
66582;SHT31;53438;48.898;2.308;2023-11-18T08:06:07;10.72;88.00
66582;SHT31;53438;48.898;2.308;2023-11-18T08:08:33;10.73;88.41
66582;SHT31;53438;48.898;2.308;2023-11-18T08:10:59;10.62;88.52
66582;SHT31;53438;48.898;2.308;2023-11-18T08:13:25;10.56;88.85
66582;SHT31;53438;48.898;2.308;2023-11-18T08:15:51;10.61;88.95
66582;SHT31;53438;48.898;2.308;2023-11-18T08:18:17;10.73;88.35
66582;SHT31;53438;48.898;2.308;2023-11-18T08:20:43;10.69;87.97
66582;SHT31;53438;48.898;2.308;2023-11-18T08:23:09;10.72;88.12
66582;SHT31;53438;48.898;2.308;2023-11-18T08:25:35;10.62;88.68
66582;SHT31;53438;48.898;2.308;2023-11-18T08:28:01;10.49;89.36
66582;SHT31;53438;48.898;2.308;2023-11-18T08:30:27;10.64;89.14
66582;SHT31;53438;48.898;2.308;2023-11-18T08:32:52;10.68;88.62
66582;SHT31;53438;48.898;2.308;2023-11-18T08:35:18;10.71;88.39
66582;SHT31;53438;48.898;2.308;2023-11-18T08:37:44;10.71;88.25
66582;SHT31;53438;48.898;2.308;2023-11-18T08:40:11;10.80;88.37
66582;SHT31;53438;48.898;2.308;2023-11-18T08:42:51;10.86;88.26
66582;SHT31;53438;48.898;2.308;2023-11-18T08:45:20;10.83;88.31
66582;SHT31;53438;48.898;2.308;2023-11-18T08:47:58;10.88;88.30
66582;SHT31;53438;48.898;2.308;2023-11-18T08:50:25;10.75;88.63
66582;SHT31;53438;48.898;2.308;2023-11-18T08:52:53;10.96;88.31
66582;SHT31;53438;48.898;2.308;2023-11-18T08:55:23;11.06;87.68
66582;SHT31;53438;48.898;2.308;2023-11-18T08:58:03;10.95;88.09
66582;SHT31;53438;48.898;2.308;2023-11-18T09:00:41;10.86;88.29
66582;SHT31;53438;48.898;2.308;2023-11-18T09:03:10;10.91;88.21
66582;SHT31;53438;48.898;2.308;2023-11-18T09:05:46;10.97;88.22
66582;SHT31;53438;48.898;2.308;2023-11-18T09:08:23;10.95;88.05
66582;SHT31;53438;48.898;2.308;2023-11-18T09:10:49;10.92;88.16
66582;SHT31;53438;48.898;2.308;2023-11-18T09:13:14;10.97;88.31
66582;SHT31;53438;48.898;2.308;2023-11-18T09:15:39;10.93;88.26
66582;SHT31;53438;48.898;2.308;2023-11-18T09:18:05;11.02;88.28
66582;SHT31;53438;48.898;2.308;2023-11-18T09:20:35;11.09;87.68
66582;SHT31;53438;48.898;2.308;2023-11-18T09:23:01;11.12;87.79
66582;SHT31;53438;48.898;2.308;2023-11-18T09:25:27;11.09;88.02
66582;SHT31;53438;48.898;2.308;2023-11-18T09:27:53;11.22;87.78
66582;SHT31;53438;48.898;2.308;2023-11-18T09:30:19;11.22;87.85
66582;SHT31;53438;48.898;2.308;2023-11-18T09:32:44;11.20;87.99
66582;SHT31;53438;48.898;2.308;2023-11-18T09:35:13;11.15;88.12
66582;SHT31;53438;48.898;2.308;2023-11-18T09:37:39;11.10;88.25
66582;SHT31;53438;48.898;2.308;2023-11-18T09:40:10;11.22;88.13
66582;SHT31;53438;48.898;2.308;2023-11-18T09:42:38;11.16;88.28
66582;SHT31;53438;48.898;2.308;2023-11-18T09:45:05;11.22;88.13
66582;SHT31;53438;48.898;2.308;2023-11-18T09:47:37;11.24;88.09
66582;SHT31;53438;48.898;2.308;2023-11-18T09:50:08;11.16;88.48
66582;SHT31;53438;48.898;2.308;2023-11-18T09:52:42;11.19;88.28
66582;SHT31;53438;48.898;2.308;2023-11-18T09:55:24;11.15;88.73
66582;SHT31;53438;48.898;2.308;2023-11-18T09:57:55;11.15;88.87
66582;SHT31;53438;48.898;2.308;2023-11-18T10:00:26;11.17;88.86
66582;SHT31;53438;48.898;2.308;2023-11-18T10:02:57;11.17;89.01
66582;SHT31;53438;48.898;2.308;2023-11-18T10:05:26;11.17;88.84
66582;SHT31;53438;48.898;2.308;2023-11-18T10:07:52;11.24;88.91
66582;SHT31;53438;48.898;2.308;2023-11-18T10:10:18;11.26;88.87
66582;SHT31;53438;48.898;2.308;2023-11-18T10:12:47;11.34;88.49
66582;SHT31;53438;48.898;2.308;2023-11-18T10:15:23;11.36;88.37
66582;SHT31;53438;48.898;2.308;2023-11-18T10:17:49;11.40;88.42
66582;SHT31;53438;48.898;2.308;2023-11-18T10:20:51;11.51;88.19
66582;SHT31;53438;48.898;2.308;2023-11-18T10:23:17;11.47;88.07
66582;SHT31;53438;48.898;2.308;2023-11-18T10:25:51;11.40;88.49
66582;SHT31;53438;48.898;2.308;2023-11-18T10:30:47;11.53;88.46
66582;SHT31;53438;48.898;2.308;2023-11-18T10:33:14;11.51;88.18
66582;SHT31;53438;48.898;2.308;2023-11-18T10:35:48;11.54;88.36
66582;SHT31;53438;48.898;2.308;2023-11-18T10:38:16;11.58;88.09
66582;SHT31;53438;48.898;2.308;2023-11-18T10:40:41;11.54;88.51
66582;SHT31;53438;48.898;2.308;2023-11-18T10:43:07;11.45;88.99
66582;SHT31;53438;48.898;2.308;2023-11-18T10:45:35;11.55;88.95
66582;SHT31;53438;48.898;2.308;2023-11-18T10:48:05;11.51;88.82
66582;SHT31;53438;48.898;2.308;2023-11-18T10:50:31;11.65;88.71
66582;SHT31;53438;48.898;2.308;2023-11-18T10:52:59;11.53;89.25
66582;SHT31;53438;48.898;2.308;2023-11-18T10:55:35;11.51;89.52
66582;SHT31;53438;48.898;2.308;2023-11-18T10:58:01;11.53;89.34
66582;SHT31;53438;48.898;2.308;2023-11-18T11:00:26;11.67;89.02
66582;SHT31;53438;48.898;2.308;2023-11-18T11:02:58;11.65;88.60
66582;SHT31;53438;48.898;2.308;2023-11-18T11:05:28;11.70;88.75
66582;SHT31;53438;48.898;2.308;2023-11-18T11:07:58;11.71;88.62
66582;SHT31;53438;48.898;2.308;2023-11-18T11:10:24;11.75;88.44
66582;SHT31;53438;48.898;2.308;2023-11-18T11:13:00;11.77;88.55
66582;SHT31;53438;48.898;2.308;2023-11-18T11:15:30;11.82;88.33
66582;SHT31;53438;48.898;2.308;2023-11-18T11:18:02;11.96;88.00
66582;SHT31;53438;48.898;2.308;2023-11-18T11:20:47;11.85;88.24
66582;SHT31;53438;48.898;2.308;2023-11-18T11:23:27;11.82;88.59
66582;SHT31;53438;48.898;2.308;2023-11-18T11:31:43;11.92;88.50
66582;SHT31;53438;48.898;2.308;2023-11-18T11:34:18;11.94;88.29
66582;SHT31;53438;48.898;2.308;2023-11-18T11:36:48;12.01;88.35
66582;SHT31;53438;48.898;2.308;2023-11-18T11:39:17;12.01;88.30
66582;SHT31;53438;48.898;2.308;2023-11-18T11:41:50;11.96;88.48
66582;SHT31;53438;48.898;2.308;2023-11-18T11:44:16;12.01;88.50
66582;SHT31;53438;48.898;2.308;2023-11-18T11:46:45;12.09;88.22
66582;SHT31;53438;48.898;2.308;2023-11-18T11:49:21;12.15;88.40
66582;SHT31;53438;48.898;2.308;2023-11-18T11:52:15;12.05;88.54
66582;SHT31;53438;48.898;2.308;2023-11-18T11:54:52;12.11;88.62
66582;SHT31;53438;48.898;2.308;2023-11-18T11:57:22;12.15;88.90
66582;SHT31;53438;48.898;2.308;2023-11-18T12:02:21;12.16;88.79
66582;SHT31;53438;48.898;2.308;2023-11-18T12:04:49;12.13;88.84
66582;SHT31;53438;48.898;2.308;2023-11-18T12:07:19;12.16;89.07
66582;SHT31;53438;48.898;2.308;2023-11-18T12:09:47;12.23;88.66
66582;SHT31;53438;48.898;2.308;2023-11-18T12:12:20;12.22;88.98
66582;SHT31;53438;48.898;2.308;2023-11-18T12:14:52;12.25;88.77
66582;SHT31;53438;48.898;2.308;2023-11-18T12:17:21;12.28;89.12
66582;SHT31;53438;48.898;2.308;2023-11-18T12:19:50;12.16;89.26
66582;SHT31;53438;48.898;2.308;2023-11-18T12:22:19;12.21;89.04
66582;SHT31;53438;48.898;2.308;2023-11-18T12:27:45;12.23;89.43
66582;SHT31;53438;48.898;2.308;2023-11-18T12:41:36;12.44;88.95
66582;SHT31;53438;48.898;2.308;2023-11-18T12:44:23;12.43;89.20
66582;SHT31;53438;48.898;2.308;2023-11-18T12:49:44;12.34;89.91
66582;SHT31;53438;48.898;2.308;2023-11-18T12:52:15;12.37;89.57
66582;SHT31;53438;48.898;2.308;2023-11-18T12:54:44;12.43;89.57
66582;SHT31;53438;48.898;2.308;2023-11-18T12:57:12;12.40;89.61
66582;SHT31;53438;48.898;2.308;2023-11-18T12:59:41;12.47;89.24
66582;SHT31;53438;48.898;2.308;2023-11-18T13:02:10;12.43;89.47
66582;SHT31;53438;48.898;2.308;2023-11-18T13:04:44;12.47;89.52
66582;SHT31;53438;48.898;2.308;2023-11-18T13:07:17;12.44;89.77
66582;SHT31;53438;48.898;2.308;2023-11-18T13:09:43;12.47;89.84
66582;SHT31;53438;48.898;2.308;2023-11-18T13:12:11;12.44;90.18
66582;SHT31;53438;48.898;2.308;2023-11-18T13:14:41;12.42;90.11
66582;SHT31;53438;48.898;2.308;2023-11-18T13:17:12;12.43;89.99
66582;SHT31;53438;48.898;2.308;2023-11-18T13:19:41;12.49;89.87
66582;SHT31;53438;48.898;2.308;2023-11-18T13:22:11;12.59;89.51
66582;SHT31;53438;48.898;2.308;2023-11-18T13:24:41;12.54;89.37
66582;SHT31;53438;48.898;2.308;2023-11-18T13:27:12;12.59;89.49
66582;SHT31;53438;48.898;2.308;2023-11-18T13:29:39;12.59;89.62
66582;SHT31;53438;48.898;2.308;2023-11-18T13:32:05;12.56;89.88
66582;SHT31;53438;48.898;2.308;2023-11-18T13:34:32;12.52;90.07
66582;SHT31;53438;48.898;2.308;2023-11-18T13:37:00;12.49;90.39
66582;SHT31;53438;48.898;2.308;2023-11-18T13:39:25;12.53;90.20
66582;SHT31;53438;48.898;2.308;2023-11-18T13:41:53;12.46;90.44
66582;SHT31;53438;48.898;2.308;2023-11-18T13:44:37;12.47;90.74
66582;SHT31;53438;48.898;2.308;2023-11-18T13:47:10;12.47;90.67
66582;SHT31;53438;48.898;2.308;2023-11-18T13:49:39;12.49;90.45
66582;SHT31;53438;48.898;2.308;2023-11-18T13:52:08;12.50;91.13
66582;SHT31;53438;48.898;2.308;2023-11-18T13:54:37;12.52;90.44
66582;SHT31;53438;48.898;2.308;2023-11-18T13:57:03;12.56;90.25
66582;SHT31;53438;48.898;2.308;2023-11-18T13:59:29;12.50;90.80
66582;SHT31;53438;48.898;2.308;2023-11-18T14:01:56;12.50;90.98
66582;SHT31;53438;48.898;2.308;2023-11-18T14:04:26;12.49;90.93
66582;SHT31;53438;48.898;2.308;2023-11-18T14:06:53;12.53;91.07
66582;SHT31;53438;48.898;2.308;2023-11-18T14:09:21;12.64;90.58
66582;SHT31;53438;48.898;2.308;2023-11-18T14:11:47;12.60;90.50
66582;SHT31;53438;48.898;2.308;2023-11-18T14:14:13;12.70;90.52
66582;SHT31;53438;48.898;2.308;2023-11-18T14:16:39;12.70;90.40
66582;SHT31;53438;48.898;2.308;2023-11-18T14:19:05;12.72;91.05
66582;SHT31;53438;48.898;2.308;2023-11-18T14:21:31;12.60;91.68
66582;SHT31;53438;48.898;2.308;2023-11-18T14:23:57;12.74;90.48
66582;SHT31;53438;48.898;2.308;2023-11-18T14:26:25;12.77;90.85
66582;SHT31;53438;48.898;2.308;2023-11-18T14:28:52;12.77;90.67
66582;SHT31;53438;48.898;2.308;2023-11-18T14:31:17;12.73;91.13
66582;SHT31;53438;48.898;2.308;2023-11-18T14:33:43;12.81;90.67
66582;SHT31;53438;48.898;2.308;2023-11-18T14:36:09;12.83;90.73
66582;SHT31;53438;48.898;2.308;2023-11-18T14:38:34;12.76;91.13
66582;SHT31;53438;48.898;2.308;2023-11-18T14:41:00;12.79;91.10
66582;SHT31;53438;48.898;2.308;2023-11-18T14:43:25;12.70;91.56
66582;SHT31;53438;48.898;2.308;2023-11-18T14:45:50;12.77;91.26
66582;SHT31;53438;48.898;2.308;2023-11-18T14:48:16;12.81;91.03
66582;SHT31;53438;48.898;2.308;2023-11-18T14:50:42;12.83;91.21
66582;SHT31;53438;48.898;2.308;2023-11-18T14:53:07;12.88;91.00
66582;SHT31;53438;48.898;2.308;2023-11-18T14:55:32;12.83;91.08
66582;SHT31;53438;48.898;2.308;2023-11-18T14:57:58;12.90;90.87
66582;SHT31;53438;48.898;2.308;2023-11-18T15:00:24;12.83;91.39
66582;SHT31;53438;48.898;2.308;2023-11-18T15:02:53;12.85;91.15
66582;SHT31;53438;48.898;2.308;2023-11-18T15:05:19;12.88;91.18
66582;SHT31;53438;48.898;2.308;2023-11-18T15:07:53;12.90;91.02
66582;SHT31;53438;48.898;2.308;2023-11-18T15:10:20;12.84;91.14
66582;SHT31;53438;48.898;2.308;2023-11-18T15:12:56;12.85;91.36
66582;SHT31;53438;48.898;2.308;2023-11-18T15:15:27;12.83;91.57
66582;SHT31;53438;48.898;2.308;2023-11-18T15:18:05;12.85;91.70
66582;SHT31;53438;48.898;2.308;2023-11-18T15:20:35;12.85;91.52
66582;SHT31;53438;48.898;2.308;2023-11-18T15:23:01;12.91;91.54
66582;SHT31;53438;48.898;2.308;2023-11-18T15:25:27;12.98;91.35
66582;SHT31;53438;48.898;2.308;2023-11-18T15:27:53;12.97;91.50
66582;SHT31;53438;48.898;2.308;2023-11-18T15:30:18;12.97;91.29
66582;SHT31;53438;48.898;2.308;2023-11-18T15:32:45;13.03;91.16
66582;SHT31;53438;48.898;2.308;2023-11-18T15:35:12;13.05;91.23
66582;SHT31;53438;48.898;2.308;2023-11-18T15:37:39;13.04;91.36
66582;SHT31;53438;48.898;2.308;2023-11-18T15:40:07;12.98;91.53
66582;SHT31;53438;48.898;2.308;2023-11-18T15:42:38;13.15;90.98
66582;SHT31;53438;48.898;2.308;2023-11-18T15:45:07;13.04;91.60
66582;SHT31;53438;48.898;2.308;2023-11-18T15:47:34;12.95;91.97
66582;SHT31;53438;48.898;2.308;2023-11-18T15:50:02;13.04;91.60
66582;SHT31;53438;48.898;2.308;2023-11-18T15:52:29;13.01;91.76
66582;SHT31;53438;48.898;2.308;2023-11-18T15:54:54;13.01;92.20
66582;SHT31;53438;48.898;2.308;2023-11-18T15:57:19;12.94;92.36
66582;SHT31;53438;48.898;2.308;2023-11-18T15:59:47;13.05;92.30
66582;SHT31;53438;48.898;2.308;2023-11-18T16:02:12;13.12;91.83
66582;SHT31;53438;48.898;2.308;2023-11-18T16:04:38;13.01;92.50
66582;SHT31;53438;48.898;2.308;2023-11-18T16:07:03;13.07;92.30
66582;SHT31;53438;48.898;2.308;2023-11-18T16:09:28;13.00;92.47
66582;SHT31;53438;48.898;2.308;2023-11-18T16:11:54;13.03;92.31
66582;SHT31;53438;48.898;2.308;2023-11-18T16:14:19;13.01;92.78
66582;SHT31;53438;48.898;2.308;2023-11-18T16:16:46;12.98;92.55
66582;SHT31;53438;48.898;2.308;2023-11-18T16:19:11;13.04;92.40
66582;SHT31;53438;48.898;2.308;2023-11-18T16:21:37;13.11;92.20
66582;SHT31;53438;48.898;2.308;2023-11-18T16:24:03;13.10;92.49
66582;SHT31;53438;48.898;2.308;2023-11-18T16:26:29;13.11;92.53
66582;SHT31;53438;48.898;2.308;2023-11-18T16:28:54;13.11;92.39
66582;SHT31;53438;48.898;2.308;2023-11-18T16:31:20;13.11;92.42
66582;SHT31;53438;48.898;2.308;2023-11-18T16:33:47;13.05;92.61
66582;SHT31;53438;48.898;2.308;2023-11-18T16:36:19;13.12;92.27
66582;SHT31;53438;48.898;2.308;2023-11-18T16:38:46;13.11;92.25
66582;SHT31;53438;48.898;2.308;2023-11-18T16:41:12;13.10;92.29
66582;SHT31;53438;48.898;2.308;2023-11-18T16:43:37;13.14;92.35
66582;SHT31;53438;48.898;2.308;2023-11-18T16:46:02;13.18;92.02
66582;SHT31;53438;48.898;2.308;2023-11-18T16:48:28;13.24;91.85
66582;SHT31;53438;48.898;2.308;2023-11-18T16:50:53;13.28;91.77
66582;SHT31;53438;48.898;2.308;2023-11-18T16:53:19;13.29;91.84
66582;SHT31;53438;48.898;2.308;2023-11-18T16:55:44;13.24;92.05
66582;SHT31;53438;48.898;2.308;2023-11-18T16:58:10;13.29;91.64
66582;SHT31;53438;48.898;2.308;2023-11-18T17:00:35;13.25;92.17
66582;SHT31;53438;48.898;2.308;2023-11-18T17:03:02;13.26;91.85
66582;SHT31;53438;48.898;2.308;2023-11-18T17:05:29;13.35;91.95
66582;SHT31;53438;48.898;2.308;2023-11-18T17:07:55;13.34;91.63
66582;SHT31;53438;48.898;2.308;2023-11-18T17:10:21;13.41;91.61
66582;SHT31;53438;48.898;2.308;2023-11-18T17:12:48;13.31;91.77
66582;SHT31;53438;48.898;2.308;2023-11-18T17:15:13;13.34;91.91
66582;SHT31;53438;48.898;2.308;2023-11-18T17:17:49;13.42;91.70
66582;SHT31;53438;48.898;2.308;2023-11-18T17:20:24;13.35;92.03
66582;SHT31;53438;48.898;2.308;2023-11-18T17:22:49;13.35;92.43
66582;SHT31;53438;48.898;2.308;2023-11-18T17:25:17;13.35;92.38
66582;SHT31;53438;48.898;2.308;2023-11-18T17:27:43;13.36;92.49
66582;SHT31;53438;48.898;2.308;2023-11-18T17:30:09;13.48;92.01
66582;SHT31;53438;48.898;2.308;2023-11-18T17:32:40;13.58;91.65
66582;SHT31;53438;48.898;2.308;2023-11-18T17:35:08;13.43;91.86
66582;SHT31;53438;48.898;2.308;2023-11-18T17:37:37;13.51;92.06
66582;SHT31;53438;48.898;2.308;2023-11-18T17:40:04;13.51;92.08
66582;SHT31;53438;48.898;2.308;2023-11-18T17:42:30;13.49;92.44
66582;SHT31;53438;48.898;2.308;2023-11-18T17:44:56;13.49;92.51
66582;SHT31;53438;48.898;2.308;2023-11-18T17:47:22;13.46;92.48
66582;SHT31;53438;48.898;2.308;2023-11-18T17:49:54;13.51;92.12
66582;SHT31;53438;48.898;2.308;2023-11-18T17:52:19;13.51;92.34
66582;SHT31;53438;48.898;2.308;2023-11-18T17:54:44;13.52;92.36
66582;SHT31;53438;48.898;2.308;2023-11-18T17:57:10;13.52;92.26
66582;SHT31;53438;48.898;2.308;2023-11-18T17:59:36;13.51;92.55
66582;SHT31;53438;48.898;2.308;2023-11-18T18:02:01;13.53;92.49
66582;SHT31;53438;48.898;2.308;2023-11-18T18:04:26;13.65;92.15
66582;SHT31;53438;48.898;2.308;2023-11-18T18:06:52;13.70;92.08
66582;SHT31;53438;48.898;2.308;2023-11-18T18:09:17;13.74;91.78
66582;SHT31;53438;48.898;2.308;2023-11-18T18:11:45;13.73;91.83
66582;SHT31;53438;48.898;2.308;2023-11-18T18:14:10;13.69;91.97
66582;SHT31;53438;48.898;2.308;2023-11-18T18:16:36;13.66;92.07
66582;SHT31;53438;48.898;2.308;2023-11-18T18:19:01;13.76;91.97
66582;SHT31;53438;48.898;2.308;2023-11-18T18:21:26;13.77;91.77
66582;SHT31;53438;48.898;2.308;2023-11-18T18:23:52;13.83;91.70
66582;SHT31;53438;48.898;2.308;2023-11-18T18:26:17;13.84;91.63
66582;SHT31;53438;48.898;2.308;2023-11-18T18:28:43;13.84;91.43
66582;SHT31;53438;48.898;2.308;2023-11-18T18:31:08;13.90;91.44
66582;SHT31;53438;48.898;2.308;2023-11-18T18:33:33;13.86;91.40
66582;SHT31;53438;48.898;2.308;2023-11-18T18:35:59;13.89;91.34
66582;SHT31;53438;48.898;2.308;2023-11-18T18:38:24;13.93;91.21
66582;SHT31;53438;48.898;2.308;2023-11-18T18:40:50;13.90;91.33
66582;SHT31;53438;48.898;2.308;2023-11-18T18:43:15;13.86;91.92
66582;SHT31;53438;48.898;2.308;2023-11-18T18:45:40;13.84;91.93
66582;SHT31;53438;48.898;2.308;2023-11-18T18:48:06;13.93;91.45
66582;SHT31;53438;48.898;2.308;2023-11-18T18:50:31;13.89;91.72
66582;SHT31;53438;48.898;2.308;2023-11-18T18:53:02;13.86;91.69
66582;SHT31;53438;48.898;2.308;2023-11-18T18:55:28;13.90;91.79
66582;SHT31;53438;48.898;2.308;2023-11-18T18:57:53;13.91;91.69
66582;SHT31;53438;48.898;2.308;2023-11-18T19:00:19;13.87;91.76
66582;SHT31;53438;48.898;2.308;2023-11-18T19:02:44;13.94;91.67